Weather at Beatrice Municipal Airport

Public forecast

Using degrees Fahrenheit for public forecast. Weather courtesy of forecast.io.

Current aviation weather report (METAR) for Beatrice Municipal Airport

Retrieved 2021/01/27 09:35 UTC (0 seconds ago):

KBIE 270935Z AUTO 05006KT 4SM -SN OVC022 M09/M11 A3026 RMK AO2 T10911106

Closest aviation forecast (TAF) to Beatrice Municipal Airport

Closest forecast is Lincoln Airport, 33.0 nm (61.1 km) N. Retrieved 2021/01/27 06:24 UTC (3 hours ago):

TAF KLNK 270521Z 2706/2806 03007KT P6SM OVC025 FM270930 02005KT 2SM -SN OVC015 FM271200 02005KT P6SM OVC025 FM271800 VRB04KT P6SM SCT035 FM280300 16006KT P6SM SCT010